createdAt,value
2018-04-07T00:00:15.233Z,51.76
2018-04-07T00:01:15.228Z,51.38
2018-04-07T00:02:15.223Z,51.57
2018-04-07T00:03:15.216Z,51.38
2018-04-07T00:04:15.211Z,52.12
2018-04-07T00:05:15.206Z,51.67
2018-04-07T00:06:15.202Z,51.57
2018-04-07T00:07:15.195Z,51.38
2018-04-07T00:08:15.190Z,51.57
2018-04-07T00:09:15.185Z,51.38
2018-04-07T00:10:15.181Z,51.57
2018-04-07T00:11:15.174Z,51.48
2018-04-07T00:12:15.171Z,51.19
2018-04-07T00:13:15.202Z,51.57
2018-04-07T00:14:15.160Z,51.76
2018-04-07T00:15:15.155Z,51.48
2018-04-07T00:16:15.148Z,51.57
2018-04-07T00:17:15.142Z,51.38
2018-04-07T00:18:15.138Z,51.76
2018-04-07T00:19:15.130Z,51.67
2018-04-07T00:20:15.127Z,51.38
2018-04-07T00:21:15.121Z,51.86
2018-04-07T00:22:15.115Z,51.67
2018-04-07T00:23:15.110Z,51.86
2018-04-07T00:24:15.104Z,52.05
2018-04-07T00:25:15.099Z,52.05
2018-04-07T00:26:15.095Z,51.83
2018-04-07T00:27:15.089Z,51.95
2018-04-07T00:28:15.085Z,52.31
2018-04-07T00:29:15.079Z,52.22
2018-04-07T00:30:15.074Z,52.22
2018-04-07T00:31:15.067Z,52.12
2018-04-07T00:32:15.062Z,51.93
2018-04-07T00:33:15.057Z,52.03
2018-04-07T00:34:15.050Z,51.76
2018-04-07T00:35:15.046Z,52.12
2018-04-07T00:36:15.040Z,51.93
2018-04-07T00:37:15.034Z,52.12
2018-04-07T00:38:15.030Z,52.40
2018-04-07T00:39:15.023Z,52.03
2018-04-07T00:40:15.018Z,52.03
2018-04-07T00:41:15.013Z,52.40
2018-04-07T00:42:15.007Z,52.50
2018-04-07T00:43:15.001Z,52.40
2018-04-07T00:44:14.997Z,52.59
2018-04-07T00:45:15.039Z,52.59
2018-04-07T00:46:14.986Z,52.40
2018-04-07T00:47:14.979Z,52.40
2018-04-07T00:48:14.974Z,52.40
2018-04-07T00:49:14.972Z,52.69
2018-04-07T00:50:14.965Z,52.31
2018-04-07T00:51:14.958Z,52.50
2018-04-07T00:52:14.952Z,52.40
2018-04-07T00:53:14.947Z,52.40
2018-04-07T00:54:14.942Z,52.98
2018-04-07T00:55:14.935Z,52.79
2018-04-07T00:56:14.931Z,52.88
2018-04-07T00:57:14.925Z,52.88
2018-04-07T00:58:14.922Z,52.59
2018-04-07T00:59:14.921Z,52.50
2018-04-07T01:00:14.910Z,52.98
2018-04-07T01:01:14.904Z,52.88
2018-04-07T01:02:14.899Z,52.40
2018-04-07T01:03:14.892Z,52.88
2018-04-07T01:04:14.887Z,52.98
2018-04-07T01:05:14.881Z,52.40
2018-04-07T01:06:14.878Z,52.98
2018-04-07T01:07:14.871Z,53.08
2018-04-07T01:08:14.865Z,52.98
2018-04-07T01:09:14.861Z,52.98
2018-04-07T01:10:14.855Z,52.98
2018-04-07T01:11:14.848Z,52.98
2018-04-07T01:12:14.843Z,53.65
2018-04-07T01:13:14.839Z,53.65
2018-04-07T01:14:14.832Z,53.65
2018-04-07T01:15:14.827Z,53.36
2018-04-07T01:16:14.821Z,53.17
2018-04-07T01:17:14.815Z,53.36
2018-04-07T01:18:14.810Z,53.36
2018-04-07T01:19:14.805Z,53.45
2018-04-07T01:20:14.798Z,53.55
2018-04-07T01:21:14.793Z,53.55
2018-04-07T01:22:14.789Z,53.45
2018-04-07T01:23:14.782Z,53.45
2018-04-07T01:24:14.777Z,53.55
2018-04-07T01:25:14.771Z,53.55
2018-04-07T01:26:14.766Z,53.84
2018-04-07T01:27:14.761Z,53.84
2018-04-07T01:28:14.754Z,53.93
2018-04-07T01:29:14.750Z,53.84
2018-04-07T01:30:14.743Z,53.84
2018-04-07T01:31:14.737Z,53.84
2018-04-07T01:32:14.732Z,53.84
2018-04-07T01:33:14.725Z,53.55
2018-04-07T01:34:14.722Z,53.81
2018-04-07T01:35:14.714Z,53.84
2018-04-07T01:36:14.709Z,54.03
2018-04-07T01:37:14.704Z,54.19
2018-04-07T01:38:14.700Z,54.00
2018-04-07T01:39:14.692Z,54.19
2018-04-07T01:40:14.688Z,54.22
2018-04-07T01:41:14.682Z,54.57
2018-04-07T01:42:14.677Z,54.57
2018-04-07T01:43:14.670Z,54.38
2018-04-07T01:44:14.665Z,54.86
2018-04-07T01:45:14.660Z,54.57
2018-04-07T01:46:14.653Z,55.05
2018-04-07T01:47:14.652Z,55.05
2018-04-07T01:48:14.641Z,54.86
2018-04-07T01:49:14.635Z,55.05
2018-04-07T01:50:14.630Z,54.96
2018-04-07T01:51:14.624Z,54.77
2018-04-07T01:52:14.619Z,55.05
2018-04-07T01:53:14.612Z,55.24
2018-04-07T01:54:14.609Z,54.96
2018-04-07T01:55:14.603Z,55.05
2018-04-07T01:56:14.596Z,54.96
2018-04-07T01:57:14.590Z,55.15
2018-04-07T01:58:14.589Z,55.05
2018-04-07T01:59:14.580Z,55.24
2018-04-07T02:00:14.574Z,54.77
2018-04-07T02:01:14.568Z,55.34
2018-04-07T02:02:14.562Z,55.34
2018-04-07T02:03:14.556Z,55.72
2018-04-07T02:04:14.550Z,55.62
2018-04-07T02:05:14.544Z,55.62
2018-04-07T02:06:14.540Z,55.62
2018-04-07T02:07:14.533Z,55.53
2018-04-07T02:08:14.527Z,55.34
2018-04-07T02:09:14.522Z,55.82
2018-04-07T02:10:14.516Z,55.43
2018-04-07T02:11:14.530Z,55.82
2018-04-07T02:12:14.503Z,55.43
2018-04-07T02:13:14.498Z,55.43
2018-04-07T02:14:14.492Z,55.53
2018-04-07T02:15:14.486Z,55.62
2018-04-07T02:16:14.480Z,55.62
2018-04-07T02:17:14.474Z,55.82
2018-04-07T02:18:14.473Z,55.53
2018-04-07T02:19:14.463Z,55.53
2018-04-07T02:20:14.458Z,55.43
2018-04-07T02:21:14.453Z,55.53
2018-04-07T02:22:14.448Z,55.62
2018-04-07T02:23:14.441Z,55.82
2018-04-07T02:24:14.435Z,56.58
2018-04-07T02:25:14.432Z,56.48
2018-04-07T02:26:14.426Z,56.29
2018-04-07T02:27:14.416Z,56.01
2018-04-07T02:28:14.411Z,56.10
2018-04-07T02:29:14.406Z,55.91
2018-04-07T02:30:14.400Z,56.29
2018-04-07T02:31:14.394Z,56.20
2018-04-07T02:32:14.389Z,56.10
2018-04-07T02:33:14.386Z,56.38
2018-04-07T02:34:14.376Z,56.38
2018-04-07T02:35:14.372Z,56.38
2018-04-07T02:36:14.373Z,56.29
2018-04-07T02:37:14.374Z,56.67
2018-04-07T02:38:14.356Z,56.67
2018-04-07T02:39:14.348Z,56.87
2018-04-07T02:40:14.341Z,57.24
2018-04-07T02:41:14.338Z,57.06
2018-04-07T02:42:14.331Z,56.87
2018-04-07T02:43:14.325Z,57.15
2018-04-07T02:44:14.318Z,57.06
2018-04-07T02:45:14.314Z,57.43
2018-04-07T02:46:14.306Z,57.06
2018-04-07T02:47:14.300Z,57.15
2018-04-07T02:48:14.295Z,57.43
2018-04-07T02:49:14.289Z,57.72
2018-04-07T02:50:14.286Z,57.41
2018-04-07T02:51:14.277Z,57.41
2018-04-07T02:52:14.272Z,57.43
2018-04-07T02:53:14.267Z,57.41
2018-04-07T02:54:14.263Z,57.41
2018-04-07T02:55:14.255Z,57.53
2018-04-07T02:56:14.248Z,57.41
2018-04-07T02:57:14.243Z,57.12
2018-04-07T02:58:14.236Z,57.06
2018-04-07T02:59:14.228Z,57.15
2018-04-07T03:00:14.222Z,57.12
2018-04-07T03:01:14.218Z,57.22
2018-04-07T03:02:14.213Z,58.07
2018-04-07T03:03:14.210Z,57.98
2018-04-07T03:04:14.198Z,58.07
2018-04-07T03:05:14.202Z,57.63
2018-04-07T03:06:14.189Z,57.82
2018-04-07T03:07:14.182Z,57.89
2018-04-07T03:08:14.176Z,57.79
2018-04-07T03:09:14.170Z,58.01
2018-04-07T03:10:14.165Z,58.01
2018-04-07T03:11:14.157Z,57.98
2018-04-07T03:12:14.151Z,57.98
2018-04-07T03:13:14.145Z,57.70
2018-04-07T03:14:14.140Z,57.89
2018-04-07T03:15:14.134Z,57.70
2018-04-07T03:16:14.129Z,57.60
2018-04-07T03:17:14.122Z,58.17
2018-04-07T03:18:14.116Z,58.17
2018-04-07T03:19:14.113Z,57.79
2018-04-07T03:20:14.104Z,58.17
2018-04-07T03:21:14.098Z,58.07
2018-04-07T03:22:14.090Z,58.26
2018-04-07T03:23:14.087Z,58.75
2018-04-07T03:24:14.078Z,58.84
2018-04-07T03:25:14.073Z,58.36
2018-04-07T03:26:14.067Z,59.31
2018-04-07T03:27:14.060Z,58.84
2018-04-07T03:28:14.054Z,58.36
2018-04-07T03:29:14.048Z,58.46
2018-04-07T03:30:14.045Z,58.84
2018-04-07T03:31:14.040Z,58.65
2018-04-07T03:32:14.030Z,58.65
2018-04-07T03:33:14.025Z,58.75
2018-04-07T03:34:14.019Z,58.75
2018-04-07T03:35:14.011Z,58.84
2018-04-07T03:36:14.007Z,58.75
2018-04-07T03:37:14.001Z,58.84
2018-04-07T03:38:13.994Z,58.36
2018-04-07T03:39:13.987Z,58.36
2018-04-07T03:40:13.981Z,58.84
2018-04-07T03:41:13.975Z,58.84
2018-04-07T03:42:13.969Z,58.94
2018-04-07T03:43:13.962Z,58.84
2018-04-07T03:44:13.959Z,58.94
2018-04-07T03:45:13.956Z,58.75
2018-04-07T03:46:13.948Z,58.75
2018-04-07T03:47:13.941Z,58.75
2018-04-07T03:48:13.933Z,58.75
2018-04-07T03:49:13.926Z,58.75
2018-04-07T03:50:13.921Z,58.94
2018-04-07T03:51:13.913Z,58.94
2018-04-07T03:52:13.911Z,59.03
2018-04-07T03:53:13.903Z,59.03
2018-04-07T03:54:13.896Z,58.94
2018-04-07T03:55:13.888Z,58.94
2018-04-07T03:56:13.885Z,58.94
2018-04-07T03:57:13.877Z,58.75
2018-04-07T03:58:13.871Z,58.84
2018-04-07T03:59:13.863Z,58.84
2018-04-07T04:00:13.858Z,58.55
2018-04-07T04:01:13.855Z,58.84
2018-04-07T04:02:13.847Z,59.03
2018-04-07T04:03:13.839Z,58.84
2018-04-07T04:04:13.835Z,59.22
2018-04-07T04:05:13.827Z,58.94
2018-04-07T04:06:13.823Z,59.12
2018-04-07T04:07:13.819Z,60.08
2018-04-07T04:08:13.810Z,59.22
2018-04-07T04:09:13.802Z,59.31
2018-04-07T04:10:13.800Z,59.41
2018-04-07T04:11:13.791Z,59.22
2018-04-07T04:12:13.783Z,59.12
2018-04-07T04:13:13.776Z,59.22
2018-04-07T04:14:13.773Z,59.12
2018-04-07T04:15:13.766Z,60.08
2018-04-07T04:16:13.759Z,59.12
2018-04-07T04:17:13.754Z,59.22
2018-04-07T04:18:13.746Z,60.08
2018-04-07T04:19:13.740Z,59.79
2018-04-07T04:20:13.734Z,59.89
2018-04-07T04:21:13.727Z,59.79
2018-04-07T04:22:13.722Z,59.51
2018-04-07T04:23:13.716Z,59.89
2018-04-07T04:24:13.708Z,59.41
2018-04-07T04:25:13.701Z,59.79
2018-04-07T04:26:13.696Z,59.79
2018-04-07T04:27:13.689Z,59.79
2018-04-07T04:28:13.683Z,59.31
2018-04-07T04:29:13.676Z,59.70
2018-04-07T04:30:13.672Z,59.60
2018-04-07T04:31:13.667Z,59.99
2018-04-07T04:32:13.666Z,59.79
2018-04-07T04:33:13.651Z,59.79
2018-04-07T04:34:13.644Z,59.79
2018-04-07T04:35:13.637Z,59.99
2018-04-07T04:36:13.631Z,59.41
2018-04-07T04:37:13.625Z,59.60
2018-04-07T04:38:13.619Z,59.70
2018-04-07T04:39:13.612Z,59.41
2018-04-07T04:40:13.605Z,59.41
2018-04-07T04:41:13.599Z,59.51
2018-04-07T04:42:13.594Z,59.41
2018-04-07T04:43:13.590Z,59.41
2018-04-07T04:44:13.584Z,59.12
2018-04-07T04:45:13.576Z,59.22
2018-04-07T04:46:13.573Z,59.51
2018-04-07T04:47:13.561Z,59.89
2018-04-07T04:48:13.556Z,59.70
2018-04-07T04:49:13.551Z,59.79
2018-04-07T04:50:13.542Z,59.60
2018-04-07T04:51:13.537Z,59.79
2018-04-07T04:52:13.530Z,59.79
2018-04-07T04:53:13.523Z,60.27
2018-04-07T04:54:13.516Z,60.17
2018-04-07T04:55:13.513Z,59.99
2018-04-07T04:56:13.504Z,60.08
2018-04-07T04:57:13.497Z,60.52
2018-04-07T04:58:13.492Z,60.65
2018-04-07T04:59:13.484Z,60.55
2018-04-07T05:00:13.478Z,60.08
2018-04-07T05:01:13.472Z,60.17
2018-04-07T05:02:13.466Z,60.17
2018-04-07T05:03:13.460Z,60.17
2018-04-07T05:04:13.454Z,59.99
2018-04-07T05:05:13.450Z,60.08
2018-04-07T05:06:13.441Z,59.99
2018-04-07T05:07:13.434Z,60.08
2018-04-07T05:08:13.427Z,59.99
2018-04-07T05:09:13.421Z,60.08
2018-04-07T05:10:13.415Z,59.89
2018-04-07T05:11:13.408Z,60.17
2018-04-07T05:12:13.402Z,59.60
2018-04-07T05:13:13.396Z,59.70
2018-04-07T05:14:13.390Z,59.79
2018-04-07T05:15:13.383Z,59.79
2018-04-07T05:16:13.377Z,59.70
2018-04-07T05:17:13.374Z,59.12
2018-04-07T05:18:13.364Z,59.41
2018-04-07T05:19:13.357Z,59.41
2018-04-07T05:20:13.351Z,59.41
2018-04-07T05:21:13.346Z,59.31
2018-04-07T05:22:13.343Z,59.92
2018-04-07T05:23:13.334Z,60.02
2018-04-07T05:24:13.328Z,59.25
2018-04-07T05:25:13.322Z,59.25
2018-04-07T05:26:13.316Z,58.58
2018-04-07T05:27:13.307Z,59.25
2018-04-07T05:28:13.298Z,58.99
2018-04-07T05:29:13.293Z,59.06
2018-04-07T05:30:13.287Z,58.99
2018-04-07T05:31:13.288Z,58.14
2018-04-07T05:32:13.278Z,57.85
2018-04-07T05:33:13.273Z,57.50
2018-04-07T05:34:13.267Z,57.11
2018-04-07T05:35:13.264Z,56.35
2018-04-07T05:36:13.254Z,56.45
2018-04-07T05:37:13.246Z,56.35
2018-04-07T05:38:13.242Z,55.77
2018-04-07T05:39:13.235Z,55.71
2018-04-07T05:40:13.231Z,54.97
2018-04-07T05:41:13.227Z,55.10
2018-04-07T05:42:13.221Z,53.94
2018-04-07T05:43:13.216Z,53.56
2018-04-07T05:44:13.212Z,53.11
2018-04-07T05:45:13.206Z,52.66
2018-04-07T05:46:13.206Z,51.51
2018-04-07T05:47:13.200Z,50.84
2018-04-07T05:48:13.192Z,51.03
2018-04-07T05:49:13.188Z,50.77
2018-04-07T05:50:13.186Z,49.81
2018-04-07T05:51:13.182Z,49.65
2018-04-07T05:52:13.182Z,48.78
2018-04-07T05:53:13.179Z,48.28
2018-04-07T05:54:13.180Z,48.21
2018-04-07T05:55:13.170Z,48.04
2018-04-07T05:56:13.167Z,47.34
2018-04-07T05:57:13.163Z,47.61
2018-04-07T05:58:13.161Z,47.53
2018-04-07T05:59:13.162Z,47.61
2018-04-07T06:00:13.156Z,47.71
2018-04-07T06:01:13.155Z,47.44
2018-04-07T06:02:13.158Z,47.63
2018-04-07T06:03:13.150Z,46.79
2018-04-07T06:04:13.152Z,46.29
2018-04-07T06:05:13.151Z,46.58
2018-04-07T06:06:13.149Z,46.58
2018-04-07T06:07:13.147Z,46.17
2018-04-07T06:08:13.141Z,46.48
2018-04-07T06:09:13.141Z,46.70
2018-04-07T06:10:13.140Z,46.29
2018-04-07T06:11:13.139Z,46.50
2018-04-07T06:12:13.137Z,46.14
2018-04-07T06:13:13.138Z,45.76
2018-04-07T06:14:13.137Z,45.67
2018-04-07T06:15:13.135Z,44.94
2018-04-07T06:16:13.135Z,43.87
2018-04-07T06:17:13.135Z,44.06
2018-04-07T06:18:13.138Z,43.67
2018-04-07T06:19:13.137Z,43.87
2018-04-07T06:20:13.140Z,43.57
2018-04-07T06:21:13.133Z,43.38
2018-04-07T06:22:13.134Z,43.38
2018-04-07T06:23:13.137Z,43.07
2018-04-07T06:24:13.135Z,43.67
2018-04-07T06:25:13.135Z,43.36
2018-04-07T06:26:13.140Z,43.12
2018-04-07T06:27:13.140Z,42.85
2018-04-07T06:28:13.137Z,42.68
2018-04-07T06:29:13.138Z,42.20
2018-04-07T06:30:13.143Z,41.89
2018-04-07T06:31:13.145Z,41.60
2018-04-07T06:32:13.141Z,41.96
2018-04-07T06:33:13.143Z,41.89
2018-04-07T06:34:13.146Z,41.60
2018-04-07T06:35:13.146Z,41.53
2018-04-07T06:36:13.149Z,40.64
2018-04-07T06:37:13.150Z,40.76
2018-04-07T06:38:13.154Z,40.85
2018-04-07T06:39:13.154Z,40.43
2018-04-07T06:40:13.158Z,41.00
2018-04-07T06:41:13.159Z,41.24
2018-04-07T06:42:13.161Z,40.88
2018-04-07T06:43:13.162Z,40.41
2018-04-07T06:44:13.168Z,39.54
2018-04-07T06:45:13.171Z,39.45
2018-04-07T06:46:13.172Z,38.78
2018-04-07T06:47:13.172Z,38.49
2018-04-07T06:48:13.182Z,38.68
2018-04-07T06:49:13.184Z,38.59
2018-04-07T06:50:13.182Z,38.56
2018-04-07T06:51:13.184Z,38.66
2018-04-07T06:52:13.188Z,38.78
2018-04-07T06:53:13.192Z,38.70
2018-04-07T06:54:13.196Z,38.41
2018-04-07T06:55:13.197Z,38.33
2018-04-07T06:56:13.202Z,38.12
2018-04-07T06:57:13.205Z,37.45
2018-04-07T06:58:13.214Z,37.76
2018-04-07T06:59:13.219Z,37.87
2018-04-07T07:00:13.219Z,36.49
2018-04-07T07:01:13.222Z,36.76
2018-04-07T07:02:13.231Z,37.81
2018-04-07T07:03:13.236Z,38.22
2018-04-07T07:04:13.236Z,37.99
2018-04-07T07:05:13.241Z,38.22
2018-04-07T07:06:13.247Z,38.06
2018-04-07T07:07:13.251Z,37.02
2018-04-07T07:08:13.257Z,36.91
2018-04-07T07:09:13.262Z,36.60
2018-04-07T07:10:13.267Z,36.91
2018-04-07T07:11:13.271Z,36.77
2018-04-07T07:12:13.277Z,36.89
2018-04-07T07:13:13.282Z,36.81
2018-04-07T07:14:13.287Z,36.79
2018-04-07T07:15:13.293Z,36.58
2018-04-07T07:16:13.304Z,36.56
2018-04-07T07:17:13.308Z,36.93
2018-04-07T07:18:13.310Z,38.29
2018-04-07T07:19:13.315Z,38.31
2018-04-07T07:20:13.324Z,38.04
2018-04-07T07:21:13.331Z,37.68
2018-04-07T07:22:13.332Z,36.81
2018-04-07T07:23:13.338Z,36.93
2018-04-07T07:24:13.389Z,36.46
2018-04-07T07:25:13.351Z,35.53
2018-04-07T07:26:13.357Z,34.90
2018-04-07T07:27:13.361Z,35.08
2018-04-07T07:28:13.370Z,35.27
2018-04-07T07:29:13.376Z,35.65
2018-04-07T07:30:13.386Z,35.56
2018-04-07T07:31:13.441Z,35.46
2018-04-07T07:32:13.397Z,35.52
2018-04-07T07:33:13.401Z,35.10
2018-04-07T07:34:13.411Z,35.22
2018-04-07T07:35:13.417Z,34.68
2018-04-07T07:36:13.421Z,33.92
2018-04-07T07:37:13.429Z,33.42
2018-04-07T07:38:13.435Z,32.96
2018-04-07T07:39:13.442Z,32.91
2018-04-07T07:40:13.450Z,33.23
2018-04-07T07:41:13.457Z,33.02
2018-04-07T07:42:13.465Z,32.81
2018-04-07T07:43:13.471Z,32.65
2018-04-07T07:44:13.480Z,32.47
2018-04-07T07:45:13.487Z,32.29
2018-04-07T07:46:13.495Z,31.91
2018-04-07T07:47:13.501Z,31.44
2018-04-07T07:48:13.513Z,31.81
2018-04-07T07:49:13.521Z,31.62
2018-04-07T07:50:13.527Z,31.83
2018-04-07T07:51:13.533Z,31.30
2018-04-07T07:52:13.546Z,31.46
2018-04-07T07:53:13.555Z,32.43
2018-04-07T07:54:13.562Z,32.36
2018-04-07T07:55:13.566Z,31.96
2018-04-07T07:56:13.575Z,31.86
2018-04-07T07:57:13.583Z,32.24
2018-04-07T07:58:13.593Z,32.34
2018-04-07T07:59:13.598Z,32.49
2018-04-07T08:00:13.608Z,32.21
2018-04-07T08:01:13.619Z,31.67
2018-04-07T08:02:13.630Z,30.79
2018-04-07T08:03:13.637Z,30.49
2018-04-07T08:04:13.642Z,30.52
2018-04-07T08:05:13.654Z,29.73
2018-04-07T08:06:13.664Z,29.49
2018-04-07T08:07:13.673Z,30.46
2018-04-07T08:08:13.679Z,30.46
2018-04-07T08:09:13.688Z,30.65
2018-04-07T08:10:13.698Z,30.58
2018-04-07T08:11:13.706Z,29.91
2018-04-07T08:12:13.716Z,29.70
2018-04-07T08:13:13.726Z,29.60
2018-04-07T08:14:13.737Z,29.90
2018-04-07T08:15:13.746Z,29.91
2018-04-07T08:16:13.757Z,29.60
2018-04-07T08:17:13.768Z,29.70
2018-04-07T08:18:13.778Z,29.57
2018-04-07T08:19:13.788Z,30.43
2018-04-07T08:20:13.802Z,30.35
2018-04-07T08:21:13.812Z,30.73
2018-04-07T08:22:13.819Z,30.83
2018-04-07T08:23:13.829Z,31.10
2018-04-07T08:24:13.843Z,31.57
2018-04-07T08:25:13.853Z,31.49
2018-04-07T08:26:13.897Z,32.01
2018-04-07T08:27:13.870Z,32.24
2018-04-07T08:28:13.880Z,30.78
2018-04-07T08:29:13.892Z,30.52
2018-04-07T08:30:13.902Z,29.84
2018-04-07T08:31:13.914Z,29.64
2018-04-07T08:32:14.025Z,29.26
2018-04-07T08:33:13.937Z,29.34
2018-04-07T08:34:13.946Z,29.41
2018-04-07T08:35:13.955Z,29.60
2018-04-07T08:36:13.966Z,30.02
2018-04-07T08:37:14.896Z,29.73
2018-04-07T08:38:13.988Z,29.73
2018-04-07T08:39:13.998Z,29.85
2018-04-07T08:40:14.011Z,29.01
2018-04-07T08:41:14.022Z,29.55
2018-04-07T08:42:14.033Z,31.12
2018-04-07T08:43:14.049Z,31.81
2018-04-07T08:44:14.058Z,30.91
2018-04-07T08:45:14.069Z,31.48
2018-04-07T08:46:14.080Z,31.45
2018-04-07T08:47:14.090Z,32.21
2018-04-07T08:48:14.096Z,32.99
2018-04-07T08:49:14.108Z,33.53
2018-04-07T08:50:14.120Z,33.50
2018-04-07T08:51:14.128Z,34.58
2018-04-07T08:52:14.138Z,35.25
2018-04-07T08:53:14.153Z,35.27
2018-04-07T08:54:14.159Z,35.61
2018-04-07T08:55:14.168Z,34.89
2018-04-07T08:56:14.178Z,33.69
2018-04-07T08:57:14.188Z,32.81
2018-04-07T08:58:14.202Z,31.59
2018-04-07T08:59:14.211Z,30.41
2018-04-07T09:00:14.217Z,30.73
2018-04-07T09:01:14.228Z,29.63
2018-04-07T09:02:14.238Z,29.60
2018-04-07T09:03:14.249Z,29.78
2018-04-07T09:04:14.261Z,30.44
2018-04-07T09:05:14.271Z,30.43
2018-04-07T09:06:14.283Z,31.18
2018-04-07T09:07:14.289Z,31.52
2018-04-07T09:08:14.299Z,31.16
2018-04-07T09:09:14.315Z,31.01
2018-04-07T09:10:14.323Z,30.51
2018-04-07T09:11:14.332Z,29.94
2018-04-07T09:12:14.343Z,29.53
2018-04-07T09:13:14.356Z,29.80
2018-04-07T09:14:14.367Z,29.86
2018-04-07T09:15:14.377Z,30.21
2018-04-07T09:16:14.393Z,31.25
2018-04-07T09:17:14.406Z,31.63
2018-04-07T09:18:14.418Z,32.29
2018-04-07T09:19:14.429Z,32.51
2018-04-07T09:20:14.437Z,32.70
2018-04-07T09:21:14.450Z,32.73
2018-04-07T09:22:14.461Z,32.24
2018-04-07T09:23:14.473Z,32.24
2018-04-07T09:24:14.484Z,32.38
2018-04-07T09:25:14.496Z,32.01
2018-04-07T09:26:14.521Z,31.62
2018-04-07T09:27:14.520Z,31.33
2018-04-07T09:28:14.536Z,31.31
2018-04-07T09:29:14.546Z,31.49
2018-04-07T09:30:14.561Z,32.07
2018-04-07T09:31:14.572Z,31.52
2018-04-07T09:32:14.580Z,31.34
2018-04-07T09:33:14.593Z,31.13
2018-04-07T09:34:14.606Z,31.47
2018-04-07T09:35:14.631Z,30.54
2018-04-07T09:36:14.630Z,30.52
2018-04-07T09:37:14.644Z,30.04
2018-04-07T09:38:14.660Z,29.97
2018-04-07T09:39:14.672Z,28.97
2018-04-07T09:40:14.681Z,29.38
2018-04-07T09:41:14.694Z,28.87
2018-04-07T09:42:14.712Z,28.92
2018-04-07T09:43:14.724Z,29.41
2018-04-07T09:44:14.734Z,29.59
2018-04-07T09:45:14.748Z,30.21
2018-04-07T09:46:14.763Z,29.69
2018-04-07T09:47:14.774Z,28.91
2018-04-07T09:48:14.789Z,29.00
2018-04-07T09:49:14.803Z,28.72
2018-04-07T09:50:14.817Z,28.07
2018-04-07T09:51:14.831Z,27.84
2018-04-07T09:52:14.844Z,27.79
2018-04-07T09:53:14.858Z,27.03
2018-04-07T09:54:14.873Z,26.78
2018-04-07T09:55:14.889Z,26.11
2018-04-07T09:56:14.908Z,26.73
2018-04-07T09:57:14.920Z,27.96
2018-04-07T09:58:14.931Z,28.64
2018-04-07T09:59:14.945Z,29.41
2018-04-07T10:00:14.964Z,29.81
2018-04-07T10:01:14.978Z,29.52
2018-04-07T10:02:14.991Z,29.94
2018-04-07T10:03:15.003Z,29.85
2018-04-07T10:04:15.022Z,29.32
2018-04-07T10:05:15.117Z,29.43
2018-04-07T10:06:15.048Z,29.83
2018-04-07T10:07:15.060Z,29.55
2018-04-07T10:08:15.074Z,29.74
2018-04-07T10:09:15.090Z,30.47
2018-04-07T10:10:15.106Z,29.41
2018-04-07T10:11:15.120Z,29.00
2018-04-07T10:12:15.129Z,28.98
2018-04-07T10:13:15.142Z,29.15
2018-04-07T10:14:15.161Z,29.06
2018-04-07T10:15:15.174Z,29.61
2018-04-07T10:16:15.182Z,29.99
2018-04-07T10:17:15.197Z,30.66
2018-04-07T10:18:15.213Z,30.73
2018-04-07T10:19:15.229Z,29.79
2018-04-07T10:20:15.237Z,29.02
2018-04-07T10:21:15.251Z,29.15
2018-04-07T10:22:15.264Z,28.49
2018-04-07T10:23:15.277Z,27.92
2018-04-07T10:24:15.290Z,27.22
2018-04-07T10:25:15.303Z,27.62
2018-04-07T10:26:15.318Z,26.93
2018-04-07T10:27:15.330Z,26.75
2018-04-07T10:28:15.351Z,26.42
2018-04-07T10:29:15.362Z,27.29
2018-04-07T10:30:15.371Z,27.57
2018-04-07T10:31:15.385Z,27.59
2018-04-07T10:32:15.401Z,27.62
2018-04-07T10:33:15.415Z,26.89
2018-04-07T10:34:15.425Z,26.52
2018-04-07T10:35:15.439Z,25.36
2018-04-07T10:36:15.456Z,24.30
2018-04-07T10:37:15.465Z,24.61
2018-04-07T10:38:15.490Z,24.12
2018-04-07T10:39:15.495Z,23.71
2018-04-07T10:40:15.511Z,23.86
2018-04-07T10:41:15.528Z,24.54
2018-04-07T10:42:15.537Z,24.41
2018-04-07T10:43:15.555Z,25.15
2018-04-07T10:44:15.566Z,26.10
2018-04-07T10:45:15.581Z,26.51
2018-04-07T10:46:15.596Z,27.03
2018-04-07T10:47:15.612Z,26.57
2018-04-07T10:48:15.625Z,25.68
2018-04-07T10:49:15.641Z,25.87
2018-04-07T10:50:15.654Z,25.74
2018-04-07T10:51:15.668Z,26.39
2018-04-07T10:52:15.688Z,26.68
2018-04-07T10:53:15.703Z,27.45
2018-04-07T10:54:15.718Z,27.37
2018-04-07T10:55:15.731Z,27.50
2018-04-07T10:56:15.743Z,27.84
2018-04-07T10:57:15.758Z,26.59
2018-04-07T10:58:15.775Z,25.32
2018-04-07T10:59:15.789Z,25.03
2018-04-07T11:00:15.803Z,25.09
2018-04-07T11:01:15.822Z,25.84
2018-04-07T11:02:15.831Z,25.90
2018-04-07T11:03:15.846Z,27.19
2018-04-07T11:04:15.861Z,27.14
2018-04-07T11:05:15.875Z,27.16
2018-04-07T11:06:15.894Z,26.09
2018-04-07T11:07:15.913Z,25.48
2018-04-07T11:08:15.919Z,25.69
2018-04-07T11:09:15.934Z,25.79
2018-04-07T11:10:15.949Z,26.15
2018-04-07T11:11:15.962Z,26.15
2018-04-07T11:12:15.981Z,26.43
2018-04-07T11:13:15.996Z,26.23
2018-04-07T11:14:16.007Z,26.42
2018-04-07T11:15:16.020Z,26.72
2018-04-07T11:16:16.036Z,26.70
2018-04-07T11:17:16.055Z,27.57
2018-04-07T11:18:16.066Z,27.35
2018-04-07T11:19:16.078Z,28.11
2018-04-07T11:20:16.092Z,28.00
2018-04-07T11:21:16.106Z,28.59
2018-04-07T11:22:16.123Z,28.77
2018-04-07T11:23:16.133Z,29.34
2018-04-07T11:24:16.151Z,29.24
2018-04-07T11:25:16.165Z,29.55
2018-04-07T11:26:16.179Z,29.94
2018-04-07T11:27:16.189Z,29.84
2018-04-07T11:28:16.200Z,30.41
2018-04-07T11:29:16.211Z,30.60
2018-04-07T11:30:16.223Z,30.62
2018-04-07T11:31:16.233Z,30.60
2018-04-07T11:32:16.249Z,30.58
2018-04-07T11:33:16.256Z,30.28
2018-04-07T11:34:16.267Z,31.52
2018-04-07T11:35:16.277Z,31.51
2018-04-07T11:36:16.287Z,31.99
2018-04-07T11:37:16.295Z,32.65
2018-04-07T11:38:16.307Z,32.65
2018-04-07T11:39:16.317Z,32.94
2018-04-07T11:40:16.320Z,33.05
2018-04-07T11:41:16.328Z,32.94
2018-04-07T11:42:16.342Z,33.33
2018-04-07T11:43:16.349Z,33.63
2018-04-07T11:44:16.352Z,33.42
2018-04-07T11:45:16.358Z,33.72
2018-04-07T11:46:16.366Z,33.92
2018-04-07T11:47:16.376Z,34.04
2018-04-07T11:48:16.379Z,34.04
2018-04-07T11:49:16.387Z,33.54
2018-04-07T11:50:16.391Z,33.26
2018-04-07T11:51:16.397Z,33.36
2018-04-07T11:52:16.406Z,33.65
2018-04-07T11:53:16.408Z,33.65
2018-04-07T11:54:16.419Z,33.26
2018-04-07T11:55:16.424Z,32.87
2018-04-07T11:56:16.425Z,32.96
2018-04-07T11:57:16.434Z,33.44
2018-04-07T11:58:16.437Z,32.97
2018-04-07T11:59:16.441Z,33.15
2018-04-07T12:00:16.451Z,33.36
2018-04-07T12:01:16.456Z,33.65
2018-04-07T12:02:16.488Z,33.84
2018-04-07T12:03:16.464Z,33.75
2018-04-07T12:04:16.466Z,34.15
2018-04-07T12:05:16.472Z,33.67
2018-04-07T12:06:16.476Z,33.09
2018-04-07T12:07:16.480Z,33.36
2018-04-07T12:08:16.485Z,33.36
2018-04-07T12:09:16.490Z,33.26
2018-04-07T12:10:16.494Z,33.36
2018-04-07T12:11:16.499Z,33.36
2018-04-07T12:12:16.508Z,33.34
2018-04-07T12:13:16.512Z,33.54
2018-04-07T12:14:16.518Z,33.36
2018-04-07T12:15:16.520Z,34.33
2018-04-07T12:16:16.521Z,34.33
2018-04-07T12:17:16.526Z,33.94
2018-04-07T12:18:16.530Z,33.73
2018-04-07T12:19:16.533Z,33.84
2018-04-07T12:20:16.539Z,34.05
2018-04-07T12:21:16.543Z,33.86
2018-04-07T12:22:16.546Z,33.45
2018-04-07T12:23:16.550Z,33.37
2018-04-07T12:24:16.555Z,33.18
2018-04-07T12:25:16.560Z,33.07
2018-04-07T12:26:16.567Z,33.45
2018-04-07T12:27:16.571Z,33.36
2018-04-07T12:28:16.572Z,33.36
2018-04-07T12:29:16.586Z,33.45
2018-04-07T12:30:16.580Z,32.87
2018-04-07T12:31:16.583Z,33.15
2018-04-07T12:32:16.593Z,32.97
2018-04-07T12:33:16.595Z,33.25
2018-04-07T12:34:16.596Z,33.73
2018-04-07T12:35:16.599Z,33.54
2018-04-07T12:36:16.605Z,33.83
2018-04-07T12:37:16.608Z,34.02
2018-04-07T12:38:16.611Z,33.75
2018-04-07T12:39:16.615Z,33.84
2018-04-07T12:40:16.618Z,33.84
2018-04-07T12:41:16.626Z,33.34
2018-04-07T12:42:16.625Z,33.83
2018-04-07T12:43:16.629Z,33.83
2018-04-07T12:44:16.636Z,34.04
2018-04-07T12:45:16.641Z,34.04
2018-04-07T12:46:16.640Z,34.13
2018-04-07T12:47:16.643Z,34.04
2018-04-07T12:48:16.646Z,33.94
2018-04-07T12:49:16.650Z,34.04
2018-04-07T12:50:16.653Z,34.23
2018-04-07T12:51:16.729Z,33.84
2018-04-07T12:52:16.664Z,33.75